Tiempo atmosférico en la estación meteorológica de El Campillo, Huelva (415 m.)



Fecha
DESCASC
Temp. máxima en grados centígrados (hora)
DESCASC
Temp. mínima en grados centígrados (hora)
DESCASC
Temp. media en grados centígrados
DESCASC
Racha de viento máxima en m/sg (hora)
DESCASC
Velocidad máxima media en intervalos de 10 minutos(hora)
DESCASC
Precipitaciones diarias en mm
DESCASC
Precipitaciones de 00:00 a 06:00 en mm
DESCASC
Precipitaciones de 06:00 a 12:00 en mm
DESCASC
Precipitaciones de 12:00 a 18:00 en mm
DESCASC
Precipitaciones de 18:00 a 24:00 en mm
DESCASC
21-01-2021 13.8 (16:30) 9.4 (00:00) 11.6 14.17 (21:30) 9.17 (22:50) 3 0.8 0 0.2 2
20-01-2021 13.8 (15:00) 9.4 (00:00) 11.6 15 (11:00) 9.17 (09:20) 26.2 0 24.6 1.6 0
01-01-2021 10 (15:50) 3.7 (00:00) 6.9 12.5 (12:50) 8.89 (14:20) 0 0 0 0 0
08-01-2021 7.1 (15:00) 3.3 (00:00) 5.2 11.11 (19:00) 7.5 (18:10) 10 0.6 3 5.6 0.8
25-12-2020 15 (15:20) 6.5 (00:00) 10.8 12.22 (22:40) 6.94 (22:30) 0 0 0 0 0
28-12-2020 10.9 (16:10) 4.7 (00:00) 7.8 10 (13:50) 6.39 (13:50) 1.4 0 1.4 0 0
30-12-2020 10.7 (15:10) 1.9 (00:00) 6.3 7.78 (08:20) 6.11 (08:30) 0 0 0 0 0
29-12-2020 11.6 (16:20) 3.1 (00:00) 7.4 9.17 (16:30) 5.56 (18:30) 0.6 0 0.4 0.2 0
02-01-2021 9 (15:50) 0.3 (00:00) 4.7 8.06 (16:10) 5.56 (16:10) 0 0 0 0 0
10-01-2021 7.5 (16:20) 0.4 (03:00) 4 8.33 (18:20) 5.56 (18:00) 0 0 0 0 0
26-12-2020 11.8 (16:00) 3.7 (00:00) 7.8 10.83 (11:00) 5.28 (00:40) 0 0 0 0 0
31-12-2020 10.8 (16:00) 1.9 (00:00) 6.4 10.28 (14:00) 5.28 (13:20) 1 0 0 0 1
15-01-2021 15 (15:10) 3.5 (00:00) 9.3 5.83 (02:20) 4.72 (23:59) 0 0 0 0 0
09-01-2021 7 (15:40) 1 (00:00) 4 8.06 (04:20) 4.17 (01:40) 0.2 0.2 0 0 0
07-01-2021 10.1 (15:20) 5.1 (00:00) 7.6 6.94 (05:20) 3.89 (19:40) 0.4 0.4 0 0 0
11-01-2021 10.5 (15:40) 1.7 (00:00) 6.1 5.28 (16:30) 3.61 (15:50) 0 0 0 0 0
03-01-2021 9.9 (15:20) 0 (00:00) 4.9 6.67 (17:10) 3.61 (00:20) 0 0 0 0 0
16-01-2021 18 (16:20) 6 (00:00) 12 5.28 (01:10) 3.61 (01:10) 0 0 0 0 0
06-01-2021 10 (14:50) 2.7 (00:00) 6.4 6.39 (14:20) 3.33 (11:10) 0.8 0 0 0 0.8
12-01-2021 11.7 (15:50) 2.7 (00:00) 7.2 5.56 (09:20) 3.33 (09:30) 0 0 0 0 0
14-01-2021 13.1 (16:10) 2.3 (08:50) 7.7 5.28 (18:30) 3.33 (18:30) 0 0 0 0 0
18-01-2021 16.9 (15:00) 7.6 (00:00) 12.2 5.28 (08:20) 3.33 (07:10) 0 0 0 0 0
27-12-2020 12.7 (15:00) 3.1 (00:00) 7.9 5.83 (00:30) 3.33 (06:50) 0 0 0 0 0
04-01-2021 8.8 (15:50) 1 (00:00) 4.9 5 (13:40) 3.06 (00:20) 0 0 0 0 0
17-01-2021 19.1 (16:10) 6.7 (00:00) 12.9 4.17 (00:20) 3.06 (00:20) 0 0 0 0 0
05-01-2021 8.8 (14:40) 2.6 (00:00) 5.7 5.83 (12:10) 2.78 (10:10) 0 0 0 0 0
13-01-2021 14.2 (16:00) 3.3 (00:00) 8.7 4.72 (23:50) 2.78 (23:59) 0 0 0 0 0
19-01-2021 11 (16:20) 5.9 (00:00) 8.5 5.28 (14:50) 2.78 (15:50) 0 0 0 0 0
24-12-2020 14.6 (15:20) 9.3 (00:00) 12 3.61 (14:20) 2.78 (23:10) 0 0 0 0 0
23-12-2020 13.6 (14:10) 9.5 (00:00) 11.6 4.44 (06:50) 2.22 (06:40) 0 0 0 0 0

Gráficas

Temp. máximas Temp. mínimas Temp. medias Precipitaciones Rachas de viento máximas Velocidades máximas media en intervalos de 10 minutos

Datos horarios

Fecha y hora oficial Temperatura (ºC) Velocidad del viento (km/h) Dirección del viento Racha (km/h) Dirección de racha Precipitación (mm) Presión (hPa) Tendencia (hPa) Humedad (%)
2021-01-21 23:00:00 12.5 30 Sudoeste 48 Sudoeste 1 -- -- 98
2021-01-21 22:00:00 12.2 30 Sudoeste 51 Sudoeste 0.2 -- -- 97
2021-01-21 21:00:00 12.2 28 Sudoeste 43 Sudoeste 0.2 -- -- 96
2021-01-21 20:00:00 12.3 24 Sudoeste 45 Sudoeste 0 -- -- 94
2021-01-21 19:00:00 12.4 23 Sudoeste 44 Sudoeste 0 -- -- 93
2021-01-21 18:00:00 12.9 26 Sudoeste 44 Sudoeste 0 -- -- 89
2021-01-21 17:00:00 13.5 24 Sudoeste 47 Sudoeste 0 -- -- 86
2021-01-21 16:00:00 13.5 22 Sudoeste 38 Sudoeste 0 -- -- 90
2021-01-21 15:00:00 12.7 19 Sudoeste 31 Sudoeste 0.2 -- -- 93
2021-01-21 14:00:00 12.3 13 Sudoeste 29 Sudoeste 0 -- -- 92
2021-01-21 13:00:00 12.1 16 Sudoeste 26 Sudoeste 0 -- -- 88
2021-01-21 12:00:00 11.9 13 Sudoeste 24 Sudoeste 0 -- -- 89
2021-01-21 11:00:00 12 12 Sudoeste 22 Oeste 0 -- -- 89
2021-01-21 10:00:00 10.4 10 Sudoeste 21 Oeste 0 -- -- 97
2021-01-21 09:00:00 9.4 8 Sudoeste 19 Sudoeste 0 -- -- 97
2021-01-21 08:00:00 9.7 8 Sudoeste 17 Sudoeste 0 -- -- 97
2021-01-21 07:00:00 9.7 11 Sudoeste 19 Sudoeste 0 -- -- 97
2021-01-21 06:00:00 9.7 8 Sudoeste 25 Sudoeste 0 -- -- 97
2021-01-21 05:00:00 9.8 10 Sudoeste 18 Sudoeste 0.2 -- -- 97
2021-01-21 04:00:00 9.9 9 Sudoeste 18 Sudoeste 0.4 -- -- 96
2021-01-21 03:00:00 9.9 9 Sudoeste 21 Sudoeste 0.2 -- -- 95
2021-01-21 02:00:00 9.9 10 Sudoeste 24 Sudoeste 0 -- -- 94
2021-01-21 01:00:00 10.1 14 Sudoeste 27 Sudoeste 0 -- -- 92
2021-01-21 00:00:00 10.1 15 Sudoeste 26 Sudoeste 0 -- -- 90
2021-01-20 23:00:00 10.1 12 Sudoeste 23 Sudoeste 0 -- -- 90
2021-01-20 22:00:00 9.8 10 Sudoeste 20 Oeste 0 -- -- 88
2021-01-20 21:00:00 10 11 Oeste 26 Oeste 0 -- -- 86
2021-01-20 20:00:00 10.4 9 Oeste 23 Oeste 0 -- -- 85
2021-01-20 19:00:00 11.3 12 Oeste 35 Noroeste 0 -- -- 80
2021-01-20 18:00:00 12.1 12 Oeste 25 Sudoeste 0 -- -- 77
2021-01-20 17:00:00 12.7 13 Oeste 33 Oeste 0 -- -- 73
2021-01-20 16:00:00 12.7 15 Oeste 32 Noroeste 1 -- -- 86
2021-01-20 15:00:00 13.8 22 Sudoeste 35 Sudoeste 0 -- -- 86
2021-01-20 14:00:00 12.8 16 Sudoeste 27 Sudoeste 0 -- -- 98
2021-01-20 13:00:00 11.6 12 Oeste 27 Oeste 0.6 -- -- 98
2021-01-20 12:00:00 10.7 9 Oeste 52 Sur 15 -- -- 98
2021-01-20 11:00:00 11.3 30 Sur 54 Sudoeste 0.8 -- -- 98
2021-01-20 10:00:00 11.2 30 Sudoeste 49 Sur 4 -- -- 98
2021-01-20 09:00:00 10.5 31 Sur 46 Sur 3.8 -- -- 97
2021-01-20 08:00:00 10.1 29 Sur 45 Sudoeste 0.8 -- -- 94
2021-01-20 07:00:00 9.5 15 Sur 23 Sur 0.2 -- -- 95
2021-01-20 06:00:00 9.6 13 Sur 25 Sur 0 -- -- 92
2021-01-20 05:00:00 9.5 11 Sur 22 Sur 0 -- -- 89
2021-01-20 04:00:00 9.6 12 Sur 21 Sudeste 0 -- -- 84
2021-01-20 03:00:00 9.7 12 Sur 23 Sur 0 -- -- 82
2021-01-20 02:00:00 9.7 14 Sur 22 Sur 0 -- -- 82
2021-01-20 01:00:00 9.4 11 Sur 20 Sur 0 -- -- 88
2021-01-20 00:00:00 9.5 8 Sur 14 Sur 0 -- -- 90
2021-01-19 23:00:00 9.3 9 Sur 15 Sur 0 -- -- 94
2021-01-19 22:00:00 9.5 8 Sur 17 Sur 0 -- -- 93
2021-01-19 21:00:00 9.4 7 Sur 15 Sudeste 0 -- -- 91
2021-01-19 20:00:00 9.4 6 Sudeste 15 Sudeste 0 -- -- 87
2021-01-19 19:00:00 9.5 4 Sur 12 Sudeste 0 -- -- 81
2021-01-19 18:00:00 9.9 5 Sur 13 Sur 0 -- -- 76
2021-01-19 17:00:00 10.7 6 Sur 18 Sur 0 -- -- 72
2021-01-19 16:00:00 10.9 6 Sur 16 Sur 0 -- -- 74
2021-01-19 15:00:00 10.7 7 Sur 19 Sudeste 0 -- -- 75
2021-01-19 14:00:00 10.1 9 Sudeste 17 Sudeste 0 -- -- 77
2021-01-19 13:00:00 9.4 6 Sur 16 Sudeste 0 -- -- 81
2021-01-19 12:00:00 9.1 7 Sur 15 Sudeste 0 -- -- 83
2021-01-19 11:00:00 8.6 5 Sur 12 Sudeste 0 -- -- 88
2021-01-19 10:00:00 8.3 5 Sudeste 10 Sudeste 0 -- -- 92
2021-01-19 09:00:00 8 0 Calma 9 Sudeste 0 -- -- 92
2021-01-19 08:00:00 8.2 5 Sudeste 10 Este 0 -- -- 91
2021-01-19 07:00:00 8.2 4 Sur 9 Sudoeste 0 -- -- 88
2021-01-19 06:00:00 7.1 3 Sur 7 Sudoeste 0 -- -- 92
2021-01-19 05:00:00 6.7 3 Sur 14 Sudeste 0 -- -- 84
2021-01-19 04:00:00 6.2 3 Sudeste 11 Este 0 -- -- 71
2021-01-19 03:00:00 6.5 4 Sudeste 9 Sudeste 0 -- -- 64
2021-01-19 02:00:00 6.6 4 Sudeste 8 Sudeste 0 -- -- 59
2021-01-19 01:00:00 7.3 5 Este 10 Este 0 -- -- 57
2021-01-19 00:00:00 7.8 5 Este 8 Este 0 -- -- 58
2021-01-18 23:00:00 8.2 4 Sudeste 7 Sudeste 0 -- -- 54
2021-01-18 22:00:00 8.3 5 Sudeste 9 Sudeste 0 -- -- 53
2021-01-18 21:00:00 8 3 Sudeste 7 Sudeste 0 -- -- 55
2021-01-18 20:00:00 8.7 6 Sur 10 Sur 0 -- -- 51
2021-01-18 19:00:00 10.5 6 Sudeste 17 Sur 0 -- -- 44
2021-01-18 18:00:00 16.1 5 Sudoeste 10 Sur 0 -- -- 28
2021-01-18 17:00:00 15.9 3 Sur 10 Sudeste 0 -- -- 27
2021-01-18 16:00:00 16.5 4 Norte 10 Oeste 0 -- -- 29
2021-01-18 15:00:00 16.9 4 Oeste 13 Noroeste 0 -- -- 27
2021-01-18 14:00:00 16.4 5 Sur 15 Sur 0 -- -- 19
2021-01-18 13:00:00 14.5 8 Sur 16 Sur 0 -- -- 23
2021-01-18 12:00:00 14.8 7 Sur 14 Este 0 -- -- 23
2021-01-18 11:00:00 13.9 6 Sudeste 14 Este 0 -- -- 21
2021-01-18 10:00:00 11.5 4 Este 15 Este 0 -- -- 24
2021-01-18 09:00:00 9.9 10 Este 19 Sudeste 0 -- -- 26
2021-01-18 08:00:00 10.2 9 Este 17 Este 0 -- -- 27
2021-01-18 07:00:00 10.6 10 Este 15 Este 0 -- -- 25
2021-01-18 06:00:00 10.2 5 Este 13 Este 0 -- -- 26
2021-01-18 05:00:00 11 8 Sudeste 13 Sudeste 0 -- -- 24
2021-01-18 04:00:00 10.7 4 Sudeste 8 Sudeste 0 -- -- 25
2021-01-18 03:00:00 9.7 3 Sur 4 Sudeste 0 -- -- 28
2021-01-18 02:00:00 10.4 0 Calma -- -- 0 -- -- 26
2021-01-18 01:00:00 11.3 4 Nordeste 5 Nordeste 0 -- -- 33
2021-01-18 00:00:00 10.7 2 Norte 6 Norte 0 -- -- 45
2021-01-17 23:00:00 9.3 5 Norte 8 Norte 0 -- -- 52
2021-01-17 22:00:00 9.5 5 Norte 8 Norte 0 -- -- 52
2021-01-17 21:00:00 10.5 4 Norte 5 Norte 0 -- -- 49
2021-01-17 20:00:00 11.1 0 Calma 4 Norte 0 -- -- 47
2021-01-17 19:00:00 12.3 0 Calma 9 Sur 0 -- -- 42
2021-01-17 18:00:00 16.1 8 Sur 13 Sur 0 -- -- 33
2021-01-17 17:00:00 18.4 6 Sur 13 Sur 0 -- -- 16
2021-01-17 16:00:00 19 6 Sur 14 Nordeste 0 -- -- 14
2021-01-17 15:00:00 18 7 Este 13 Este 0 -- -- 14
2021-01-17 14:00:00 17.2 4 Este 9 Este 0 -- -- 15
2021-01-17 13:00:00 16 5 Este 14 Este 0 -- -- 18
2021-01-17 12:00:00 14.6 6 Este 14 Este 0 -- -- 20
2021-01-17 11:00:00 11.8 3 Norte 6 Norte 0 -- -- 28
2021-01-17 10:00:00 9 0 Calma 4 Noroeste 0 -- -- 28
2021-01-17 09:00:00 6.9 0 Calma 5 Norte 0 -- -- 31
2021-01-17 08:00:00 7.4 4 Norte 6 Norte 0 -- -- 31
2021-01-17 07:00:00 7.1 3 Norte 8 Este 0 -- -- 34
2021-01-17 06:00:00 8.5 5 Este 8 Nordeste 0 -- -- 28
2021-01-17 05:00:00 9.2 4 Este 10 Nordeste 0 -- -- 27
2021-01-17 04:00:00 10 6 Este 13 Este 0 -- -- 25
2021-01-17 03:00:00 10.6 9 Este 14 Este 0 -- -- 24
2021-01-17 02:00:00 11.3 8 Este 13 Este 0 -- -- 20
2021-01-17 01:00:00 11.3 10 Nordeste 15 Este 0 -- -- 21
2021-01-17 00:00:00 11 11 Nordeste 13 Nordeste 0 -- -- 24
2021-01-16 23:00:00 10.7 9 Nordeste 13 Nordeste 0 -- -- 26
2021-01-16 22:00:00 10.3 8 Nordeste 11 Nordeste 0 -- -- 33
2021-01-16 21:00:00 9.9 5 Norte 9 Nordeste 0 -- -- 51
2021-01-16 20:00:00 10.8 4 Norte 11 Oeste 0 -- -- 53
2021-01-16 19:00:00 13.7 4 Noroeste 11 Nordeste 0 -- -- 31
2021-01-16 18:00:00 16.7 6 Este 12 Este 0 -- -- 17
2021-01-16 17:00:00 17.8 4 Este 12 Este 0 -- -- 18
2021-01-16 16:00:00 17.9 5 Este 13 Este 0 -- -- 15
2021-01-16 15:00:00 17.2 5 Este 17 Sudeste 0 -- -- 17
2021-01-16 14:00:00 16.1 6 Este 15 Este 0 -- -- 24
2021-01-16 13:00:00 14.8 8 Este 14 Este 0 -- -- 24
2021-01-16 12:00:00 13 3 Norte 5 Noroeste 0 -- -- 39
2021-01-16 11:00:00 11.4 2 Norte 4 Norte 0 -- -- 42
2021-01-16 10:00:00 8.7 2 Norte 4 Norte 0 -- -- 45
2021-01-16 09:00:00 6.4 2 Nordeste 3 Norte 0 -- -- 52
2021-01-16 08:00:00 6.5 3 Norte 5 Norte 0 -- -- 51
2021-01-16 07:00:00 6.2 2 Norte -- -- 0 -- -- 52
2021-01-16 06:00:00 7 3 Norte 9 Norte 0 -- -- 50
2021-01-16 05:00:00 6 4 Nordeste 6 Norte 0 -- -- 57
2021-01-16 04:00:00 6.3 5 Nordeste 13 Nordeste 0 -- -- 55
2021-01-16 03:00:00 7.6 5 Este 17 Nordeste 0 -- -- 50
2021-01-16 02:00:00 8 10 Nordeste 19 Nordeste 0 -- -- 48
2021-01-16 01:00:00 8.4 12 Norte 18 Norte 0 -- -- 45
2021-01-16 00:00:00 7.9 17 Norte 21 Norte 0 -- -- 45
2021-01-15 23:00:00 6.6 6 Nordeste 14 Norte 0 -- -- 47
2021-01-15 22:00:00 7.1 8 Norte 12 Nordeste 0 -- -- 56
2021-01-15 21:00:00 7.4 7 Nordeste 9 Nordeste 0 -- -- 62
2021-01-15 20:00:00 7.8 4 Norte 7 Noroeste 0 -- -- 62
2021-01-15 19:00:00 9.7 2 Norte 8 Noroeste 0 -- -- 45
2021-01-15 18:00:00 12.8 5 Noroeste 10 Noroeste 0 -- -- 35
2021-01-15 17:00:00 14 6 Oeste 13 Oeste 0 -- -- 33
2021-01-15 16:00:00 14.6 7 Oeste 16 Oeste 0 -- -- 32
2021-01-15 15:00:00 14.9 7 Oeste 14 Oeste 0 -- -- 34
2021-01-15 14:00:00 14.4 5 Sudoeste 15 Sudoeste 0 -- -- 32
2021-01-15 13:00:00 13.3 7 Sur 13 Sur 0 -- -- 35
2021-01-15 12:00:00 11.9 5 Sur 8 Sur 0 -- -- 42
2021-01-15 11:00:00 8.7 4 Norte 8 Norte 0 -- -- 51
2021-01-15 10:00:00 6.6 3 Norte 5 Norte 0 -- -- 55
2021-01-15 09:00:00 4.1 2 Norte 3 Norte 0 -- -- 61
2021-01-15 08:00:00 4.2 0 Calma 4 Nordeste 0 -- -- 59
2021-01-15 07:00:00 5.1 2 Norte 4 Nordeste 0 -- -- 62
2021-01-15 06:00:00 3.6 0 Calma 3 Norte 0 -- -- 72
2021-01-15 05:00:00 3.5 0 Calma 3 Noroeste 0 -- -- 72
2021-01-15 04:00:00 4.2 0 Calma 5 Sur 0 -- -- 65
2021-01-15 03:00:00 5.9 4 Este 21 Nordeste 0 -- -- 60
2021-01-15 02:00:00 5 8 Nordeste 12 Nordeste 0 -- -- 66
2021-01-15 01:00:00 3.9 2 Norte 5 Norte 0 -- -- 67
2021-01-15 00:00:00 4.6 2 Sur 5 Sur 0 -- -- 63
2021-01-14 23:00:00 4.4 2 Sudoeste 6 Norte 0 -- -- 64
2021-01-14 22:00:00 4 3 Sudoeste 6 Noroeste 0 -- -- 69
2021-01-14 21:00:00 5.3 4 Noroeste 11 Norte 0 -- -- 63
2021-01-14 20:00:00 5.7 6 Norte 12 Norte 0 -- -- 60
2021-01-14 19:00:00 7.9 10 Noroeste 19 Norte 0 -- -- 49
2021-01-14 18:00:00 11.8 3 Oeste 14 Oeste 0 -- -- 47
2021-01-14 17:00:00 12.7 6 Oeste 12 Oeste 0 -- -- 43
2021-01-14 16:00:00 13 6 Oeste 15 Oeste 0 -- -- 41
2021-01-14 15:00:00 12.6 7 Noroeste 17 Oeste 0 -- -- 38
2021-01-14 14:00:00 11.9 6 Noroeste 11 Noroeste 0 -- -- 40
2021-01-14 13:00:00 11 5 Noroeste 11 Oeste 0 -- -- 42
2021-01-14 12:00:00 10.8 3 Sudoeste 9 Sudoeste 0 -- -- 44
2021-01-14 11:00:00 8.7 5 Sur 8 Sudoeste 0 -- -- 45
2021-01-14 10:00:00 5 0 Calma 4 Sudeste 0 -- -- 59
2021-01-14 09:00:00 2.7 0 Calma 6 Sur 0 -- -- 66
2021-01-14 08:00:00 3.1 3 Sur 5 Sur 0 -- -- 59
2021-01-14 07:00:00 3.2 0 Calma 5 Sur 0 -- -- 57
2021-01-14 06:00:00 3.9 4 Sur 6 Sur 0 -- -- 56
2021-01-14 05:00:00 4.6 3 Sur 8 Sur 0 -- -- 50
2021-01-14 04:00:00 5.4 2 Sudoeste 6 Nordeste 0 -- -- 46
2021-01-14 03:00:00 6.7 5 Nordeste 9 Norte 0 -- -- 42
2021-01-14 02:00:00 5.8 5 Norte 11 Norte 0 -- -- 50
2021-01-14 01:00:00 5.7 5 Norte 17 Norte 0 -- -- 54
2021-01-14 00:00:00 6.7 10 Norte 17 Norte 0 -- -- 50
2021-01-13 23:00:00 6.2 8 Norte 12 Norte 0 -- -- 52
2021-01-13 22:00:00 6.1 5 Norte 10 Norte 0 -- -- 54
2021-01-13 21:00:00 7.1 3 Norte 7 Noroeste 0 -- -- 51
2021-01-13 20:00:00 8.4 2 Norte 7 Oeste 0 -- -- 47
2021-01-13 19:00:00 10.1 3 Oeste 10 Oeste 0 -- -- 43
2021-01-13 18:00:00 13.1 3 Oeste 10 Oeste 0 -- -- 33
2021-01-13 17:00:00 13.8 6 Oeste 13 Sudoeste 0 -- -- 33
2021-01-13 16:00:00 14.2 5 Oeste 12 Oeste 0 -- -- 25
2021-01-13 15:00:00 14 8 Oeste 16 Oeste 0 -- -- 28
2021-01-13 14:00:00 12.7 3 Noroeste 10 Norte 0 -- -- 23
2021-01-13 13:00:00 11.7 3 Noroeste 9 Noroeste 0 -- -- 28
2021-01-13 12:00:00 11.1 4 Sudoeste 10 Sudoeste 0 -- -- 32
2021-01-13 11:00:00 9.4 0 Calma 4 Sur 0 -- -- 34
2021-01-13 10:00:00 6 2 Norte 5 Noroeste 0 -- -- 37
2021-01-13 09:00:00 3.3 0 Calma 2 Norte 0 -- -- 45
2021-01-13 08:00:00 4.1 2 Norte -- -- 0 -- -- 41
2021-01-13 07:00:00 3.8 3 Norte 6 Nordeste 0 -- -- 46
2021-01-13 06:00:00 5.2 5 Nordeste 7 Nordeste 0 -- -- 41
2021-01-13 05:00:00 4.6 5 Nordeste 12 Este 0 -- -- 43
2021-01-13 04:00:00 4.9 8 Este 14 Este 0 -- -- 41
2021-01-13 03:00:00 5 7 Nordeste 10 Nordeste 0 -- -- 41
2021-01-13 02:00:00 4.4 6 Este 8 Nordeste 0 -- -- 49
2021-01-13 01:00:00 4.4 2 Este 5 Este 0 -- -- 59
2021-01-13 00:00:00 4.8 4 Este 6 Este 0 -- -- 59
2021-01-12 23:00:00 3.7 0 Calma 5 Sudeste 0 -- -- 60
2021-01-12 22:00:00 4.3 4 Sudeste 6 Sudeste 0 -- -- 58
2021-01-12 21:00:00 5.1 4 Sudeste 6 Sur 0 -- -- 55
2021-01-12 20:00:00 5.2 2 Sur 5 Sur 0 -- -- 58
2021-01-12 19:00:00 6.7 4 Sur 9 Sur 0 -- -- 54
2021-01-12 18:00:00 11.1 5 Sur 9 Sudoeste 0 -- -- 37
2021-01-12 17:00:00 11.4 3 Noroeste 12 Oeste 0 -- -- 29
2021-01-12 16:00:00 11.7 8 Sur 13 Sur 0 -- -- 27
2021-01-12 15:00:00 10.5 4 Noroeste 10 Norte 0 -- -- 30
2021-01-12 14:00:00 9.5 6 Nordeste 12 Nordeste 0 -- -- 33
2021-01-12 13:00:00 8.7 4 Este 12 Sur 0 -- -- 35
2021-01-12 12:00:00 7.9 6 Sudeste 16 Este 0 -- -- 40
2021-01-12 11:00:00 6.2 7 Este 17 Este 0 -- -- 41
2021-01-12 10:00:00 4.1 12 Este 20 Este 0 -- -- 37
2021-01-12 09:00:00 3.1 10 Este 16 Este 0 -- -- 38
2021-01-12 08:00:00 3.1 6 Este 13 Este 0 -- -- 38
2021-01-12 07:00:00 3.4 6 Este 13 Este 0 -- -- 37
2021-01-12 06:00:00 3.3 7 Este 9 Este 0 -- -- 36
2021-01-12 05:00:00 3.3 6 Nordeste 17 Este 0 -- -- 41
2021-01-12 04:00:00 3.3 10 Este 13 Este 0 -- -- 43
2021-01-12 03:00:00 3.4 8 Nordeste 12 Este 0 -- -- 48
2021-01-12 02:00:00 3.7 10 Nordeste 12 Este 0 -- -- 49
2021-01-12 01:00:00 3.7 8 Nordeste 10 Nordeste 0 -- -- 51
2021-01-12 00:00:00 3 4 Nordeste 9 Este 0 -- -- 60
2021-01-11 23:00:00 3.3 6 Nordeste 9 Nordeste 0 -- -- 62
2021-01-11 22:00:00 3.2 5 Norte 11 Norte 0 -- -- 67
2021-01-11 21:00:00 3.8 7 Norte 13 Nordeste 0 -- -- 65
2021-01-11 20:00:00 4.6 8 Nordeste 12 Norte 0 -- -- 61
2021-01-11 19:00:00 5.7 7 Nordeste 14 Nordeste 0 -- -- 55
2021-01-11 18:00:00 8 13 Norte 18 Nordeste 0 -- -- 47
2021-01-11 17:00:00 9.5 12 Norte 19 Norte 0 -- -- 41
2021-01-11 16:00:00 10.2 10 Norte 19 Norte 0 -- -- 39
2021-01-11 15:00:00 10.1 6 Norte 19 Norte 0 -- -- 40
2021-01-11 14:00:00 9.2 11 Norte 17 Norte 0 -- -- 52
2021-01-11 13:00:00 8.7 9 Norte 15 Norte 0 -- -- 56
2021-01-11 12:00:00 7.5 7 Norte 17 Nordeste 0 -- -- 64
2021-01-11 11:00:00 5.8 10 Norte 14 Norte 0 -- -- 71
2021-01-11 10:00:00 3.1 4 Norte 11 Norte 0 -- -- 79
2021-01-11 09:00:00 1.7 6 Norte 10 Nordeste 0 -- -- 84
2021-01-11 08:00:00 2.1 8 Norte 14 Norte 0 -- -- 82
2021-01-11 07:00:00 2.5 9 Nordeste 17 Nordeste 0 -- -- 80
2021-01-11 06:00:00 2 7 Nordeste 17 Norte 0 -- -- 82
2021-01-11 05:00:00 2.6 8 Nordeste 15 Nordeste 0 -- -- 79
2021-01-11 04:00:00 2.6 6 Norte 13 Norte 0 -- -- 78
2021-01-11 03:00:00 2.7 8 Nordeste 12 Noroeste 0 -- -- 80
2021-01-11 02:00:00 3.1 6 Norte 14 Nordeste 0 -- -- 78
2021-01-11 01:00:00 3.1 8 Nordeste 16 Norte 0 -- -- 80
2021-01-11 00:00:00 3.2 7 Nordeste 17 Norte 0 -- -- 82
2021-01-10 23:00:00 3.5 13 Norte 19 Nordeste 0 -- -- 81
2021-01-10 22:00:00 4.5 10 Norte 19 Nordeste 0 -- -- 77
2021-01-10 21:00:00 5.3 9 Norte 19 Nordeste 0 -- -- 74
2021-01-10 20:00:00 5.7 11 Nordeste 22 Norte 0 -- -- 72
2021-01-10 19:00:00 5.7 15 Norte 30 Norte 0 -- -- 74
2021-01-10 18:00:00 6.3 20 Norte 30 Norte 0 -- -- 71
2021-01-10 17:00:00 6.5 12 Norte 21 Nordeste 0 -- -- 67
2021-01-10 16:00:00 6.8 9 Nordeste 21 Nordeste 0 -- -- 64
2021-01-10 15:00:00 6.2 9 Nordeste 24 Nordeste 0 -- -- 69
2021-01-10 14:00:00 5.4 6 Nordeste 17 Nordeste 0 -- -- 77
2021-01-10 13:00:00 4.3 9 Nordeste 19 Este 0 -- -- 78
2021-01-10 12:00:00 3.9 9 Nordeste 21 Nordeste 0 -- -- 82
2021-01-10 11:00:00 2.7 6 Nordeste 14 Nordeste 0 -- -- 92
2021-01-10 10:00:00 2 5 Nordeste 14 Nordeste 0 -- -- 92
2021-01-10 09:00:00 1.7 4 Este 13 Nordeste 0 -- -- 94
2021-01-10 08:00:00 1.5 7 Nordeste 13 Este 0 -- -- 96
2021-01-10 07:00:00 1.3 3 Norte 5 Norte 0 -- -- 97
2021-01-10 06:00:00 1 0 Calma 3 Norte 0 -- -- 97
2021-01-10 05:00:00 0.8 2 Norte 3 Noroeste 0 -- -- 97
2021-01-10 04:00:00 0.4 2 Norte 4 Noroeste 0 -- -- 96
2021-01-10 03:00:00 0.4 0 Calma 5 Noroeste 0 -- -- 95
2021-01-10 02:00:00 0.9 3 Noroeste 7 Noroeste 0 -- -- 94
2021-01-10 01:00:00 1.6 3 Noroeste 9 Noroeste 0 -- -- 92
2021-01-10 00:00:00 1.7 2 Noroeste 10 Noroeste 0 -- -- 90
2021-01-09 23:00:00 1.8 4 Noroeste 10 Oeste 0 -- -- 88
2021-01-09 22:00:00 2.1 4 Noroeste 10 Noroeste 0 -- -- 84
2021-01-09 21:00:00 2.3 5 Noroeste 14 Norte 0 -- -- 83
2021-01-09 20:00:00 2.2 10 Norte 17 Noroeste 0 -- -- 85
2021-01-09 19:00:00 3.2 7 Noroeste 18 Noroeste 0 -- -- 79
2021-01-09 18:00:00 4.4 10 Noroeste 16 Noroeste 0 -- -- 76
2021-01-09 17:00:00 6.3 6 Oeste 24 Sudoeste 0 -- -- 63
2021-01-09 16:00:00 6.9 9 Oeste 22 Sudoeste 0 -- -- 62
2021-01-09 15:00:00 6.4 13 Sudoeste 22 Sudoeste 0 -- -- 64
2021-01-09 14:00:00 5.9 9 Oeste 18 Sudoeste 0 -- -- 67
2021-01-09 13:00:00 5.5 9 Sudoeste 19 Sudoeste 0 -- -- 74
2021-01-09 12:00:00 2.9 3 Sudoeste 13 Sudoeste 0 -- -- 84
2021-01-09 11:00:00 2.9 5 Oeste 12 Oeste 0 -- -- 87
2021-01-09 10:00:00 1.3 6 Noroeste 15 Oeste 0 -- -- 92
2021-01-09 09:00:00 1.3 5 Noroeste 17 Noroeste 0 -- -- 93
2021-01-09 08:00:00 1.5 9 Noroeste 23 Oeste 0 -- -- 93
2021-01-09 07:00:00 2.1 7 Noroeste 22 Oeste 0 -- -- 92
2021-01-09 06:00:00 2.5 8 Noroeste 22 Noroeste 0 -- -- 94
2021-01-09 05:00:00 2.7 14 Noroeste 29 Oeste 0 -- -- 94
2021-01-09 04:00:00 2.8 13 Noroeste 24 Noroeste 0 -- -- 95
2021-01-09 03:00:00 2.7 12 Noroeste 18 Norte 0 -- -- 95
2021-01-09 02:00:00 2.9 10 Norte 22 Noroeste 0 -- -- 94
2021-01-09 01:00:00 3.1 7 Noroeste 16 Noroeste 0.2 -- -- 95
2021-01-09 00:00:00 3.3 7 Noroeste 20 Noroeste 0 -- -- 95
2021-01-08 23:00:00 3.5 16 Norte 27 Noroeste 0.2 -- -- 95
2021-01-08 22:00:00 4.8 10 Noroeste 26 Norte 0.4 -- -- 94
2021-01-08 21:00:00 5 21 Norte 34 Norte 0.2 -- -- 91
2021-01-08 20:00:00 5 24 Norte 36 Norte 0 -- -- 93
2021-01-08 19:00:00 5.1 27 Norte 40 Norte 0 -- -- 93
2021-01-08 18:00:00 5.5 23 Norte 34 Norte 0 -- -- 96
2021-01-08 17:00:00 6.2 22 Norte 32 Norte 0.2 -- -- 97
2021-01-08 16:00:00 6.5 21 Norte 31 Norte 0.8 -- -- 97
2021-01-08 15:00:00 7.1 17 Nordeste 33 Nordeste 0.4 -- -- 95
2021-01-08 14:00:00 6.8 17 Nordeste 34 Nordeste 2.2 -- -- 94
2021-01-08 13:00:00 6.5 16 Norte 30 Norte 2 -- -- 97
2021-01-08 12:00:00 6.1 19 Norte 31 Norte 1.4 -- -- 94
2021-01-08 11:00:00 5.9 11 Norte 30 Norte 0.2 -- -- 88
2021-01-08 10:00:00 5.8 13 Nordeste 27 Nordeste 0 -- -- 84
2021-01-08 09:00:00 5.4 14 Nordeste 22 Nordeste 0 -- -- 87
2021-01-08 08:00:00 5.1 14 Norte 21 Norte 0.4 -- -- 91
2021-01-08 07:00:00 5.2 8 Nordeste 16 Nordeste 1 -- -- 92
2021-01-08 06:00:00 5.1 10 Este 21 Nordeste 0 -- -- 89
2021-01-08 05:00:00 5.1 7 Nordeste 22 Nordeste 0.4 -- -- 90
2021-01-08 04:00:00 5.2 11 Nordeste 22 Nordeste 0.2 -- -- 84
2021-01-08 03:00:00 5.4 10 Nordeste 26 Este 0 -- -- 79
2021-01-08 02:00:00 5.5 12 Este 26 Este 0 -- -- 79
2021-01-08 01:00:00 5.2 14 Nordeste 24 Nordeste 0 -- -- 79
2021-01-08 00:00:00 5.1 12 Nordeste 23 Nordeste 0 -- -- 78
2021-01-07 23:00:00 5.1 8 Nordeste 17 Nordeste 0 -- -- 79
2021-01-07 22:00:00 5.4 7 Nordeste 18 Nordeste 0 -- -- 79
2021-01-07 21:00:00 5.8 7 Nordeste 20 Nordeste 0 -- -- 78
2021-01-07 20:00:00 6.1 14 Nordeste 23 Nordeste 0 -- -- 79
2021-01-07 19:00:00 6.7 11 Nordeste 23 Nordeste 0 -- -- 76
2021-01-07 18:00:00 7.8 7 Este 21 Norte 0 -- -- 75
2021-01-07 17:00:00 8.9 13 Nordeste 18 Nordeste 0 -- -- 71
2021-01-07 16:00:00 9.7 5 Nordeste 17 Norte 0 -- -- 69
2021-01-07 15:00:00 9.9 9 Norte 19 Nordeste 0 -- -- 72
2021-01-07 14:00:00 8.6 8 Nordeste 17 Norte 0 -- -- 74
2021-01-07 13:00:00 8.3 9 Nordeste 17 Norte 0 -- -- 76
2021-01-07 12:00:00 7.3 5 Este 14 Nordeste 0 -- -- 81
2021-01-07 11:00:00 6.7 5 Este 15 Este 0 -- -- 84
2021-01-07 10:00:00 6.2 5 Nordeste 21 Nordeste 0 -- -- 85
2021-01-07 09:00:00 5.6 12 Norte 16 Norte 0 -- -- 88
2021-01-07 08:00:00 5.7 2 Nordeste 14 Nordeste 0 -- -- 87
2021-01-07 07:00:00 5.7 8 Nordeste 16 Nordeste 0 -- -- 89
2021-01-07 06:00:00 5.6 7 Nordeste 25 Nordeste 0 -- -- 90
2021-01-07 05:00:00 5.9 12 Nordeste 21 Nordeste 0 -- -- 89
2021-01-07 04:00:00 5.8 12 Nordeste 21 Norte 0 -- -- 92
2021-01-07 03:00:00 5.4 10 Nordeste 21 Nordeste 0.2 -- -- 95
2021-01-07 02:00:00 5.2 9 Nordeste 17 Nordeste 0 -- -- 96
2021-01-07 01:00:00 5.3 8 Nordeste 20 Sudeste 0.2 -- -- 96
2021-01-07 00:00:00 5.5 10 Este 22 Este 0 -- -- 95
2021-01-06 23:00:00 5.6 7 Este 22 Este 0 -- -- 94
2021-01-06 22:00:00 5.9 7 Este 21 Este 0.4 -- -- 92
2021-01-06 21:00:00 6.4 7 Este 17 Este 0.2 -- -- 88
2021-01-06 20:00:00 7 8 Este 18 Este 0.2 -- -- 82
2021-01-06 19:00:00 7.7 8 Nordeste 18 Nordeste 0 -- -- 74
2021-01-06 18:00:00 8.2 9 Este 17 Este 0 -- -- 72
2021-01-06 17:00:00 8.9 4 Sudeste 15 Este 0 -- -- 65
2021-01-06 16:00:00 9.3 6 Este 15 Nordeste 0 -- -- 60
2021-01-06 15:00:00 9.7 9 Este 23 Este 0 -- -- 58
2021-01-06 14:00:00 9.1 8 Este 21 Este 0 -- -- 60
2021-01-06 13:00:00 8.7 8 Este 19 Sudeste 0 -- -- 59
2021-01-06 12:00:00 7.5 8 Este 22 Este 0 -- -- 57
2021-01-06 11:00:00 5.4 11 Nordeste 20 Este 0 -- -- 60
2021-01-06 10:00:00 4.2 8 Nordeste 15 Este 0 -- -- 61
2021-01-06 09:00:00 3.8 8 Este 16 Este 0 -- -- 60
2021-01-06 08:00:00 3.8 8 Este 14 Este 0 -- -- 60
2021-01-06 07:00:00 3.3 9 Este 13 Nordeste 0 -- -- 61
2021-01-06 06:00:00 3.2 9 Nordeste 13 Nordeste 0 -- -- 63
2021-01-06 05:00:00 3.2 9 Nordeste 14 Este 0 -- -- 63
2021-01-06 04:00:00 3.3 8 Este 15 Este 0 -- -- 61
2021-01-06 03:00:00 3 9 Nordeste 12 Nordeste 0 -- -- 63
2021-01-06 02:00:00 2.8 7 Nordeste 15 Nordeste 0 -- -- 65
2021-01-06 01:00:00 3.3 10 Nordeste 18 Nordeste 0 -- -- 64
2021-01-06 00:00:00 3.2 9 Nordeste 13 Este 0 -- -- 65
2021-01-05 23:00:00 3.5 7 Este 11 Este 0 -- -- 68
2021-01-05 22:00:00 3.9 8 Nordeste 13 Nordeste 0 -- -- 73
2021-01-05 21:00:00 4.1 8 Nordeste 13 Nordeste 0 -- -- 75
2021-01-05 20:00:00 4.7 7 Nordeste 12 Nordeste 0 -- -- 73
2021-01-05 19:00:00 5.5 6 Nordeste 10 Este 0 -- -- 73
2021-01-05 18:00:00 7.1 4 Este 10 Este 0 -- -- 65
2021-01-05 17:00:00 8.1 3 Este 13 Sudeste 0 -- -- 62
2021-01-05 16:00:00 8.4 7 Nordeste 18 Este 0 -- -- 60
2021-01-05 15:00:00 8.6 9 Nordeste 19 Sudeste 0 -- -- 63
2021-01-05 14:00:00 8.5 8 Este 19 Este 0 -- -- 64
2021-01-05 13:00:00 8.3 8 Este 21 Este 0 -- -- 66
2021-01-05 12:00:00 7.6 9 Este 17 Este 0 -- -- 71
2021-01-05 11:00:00 6.5 7 Este 17 Este 0 -- -- 80
2021-01-05 10:00:00 3.7 8 Este 14 Este 0 -- -- 88
2021-01-05 09:00:00 3.3 8 Este 12 Nordeste 0 -- -- 89
2021-01-05 08:00:00 3.2 8 Este 11 Este 0 -- -- 93
2021-01-05 07:00:00 3 8 Nordeste 10 Nordeste 0 -- -- 94
2021-01-05 06:00:00 3 7 Nordeste 9 Norte 0 -- -- 95
2021-01-05 05:00:00 2.8 3 Norte 5 Nordeste 0 -- -- 95
2021-01-05 04:00:00 3 0 Calma 5 Sudeste 0 -- -- 94
2021-01-05 03:00:00 3.4 2 Nordeste 3 Nordeste 0 -- -- 95
2021-01-05 02:00:00 3.3 0 Calma 6 Norte 0 -- -- 95
2021-01-05 01:00:00 4.2 6 Este 6 Nordeste 0 -- -- 96
2021-01-05 00:00:00 4.7 6 Norte 13 Norte 0 -- -- 96
2021-01-04 23:00:00 5 2 Norte 7 Norte 0 -- -- 94
2021-01-04 22:00:00 5.4 3 Norte 4 Norte 0 -- -- 89
2021-01-04 21:00:00 5.8 2 Norte 8 Oeste 0 -- -- 84
2021-01-04 20:00:00 6.4 3 Oeste 10 Sudoeste 0 -- -- 84
2021-01-04 19:00:00 6.7 3 Sudoeste 11 Sudoeste 0 -- -- 84
2021-01-04 18:00:00 7.3 6 Sudoeste 13 Oeste 0 -- -- 77
2021-01-04 17:00:00 7.7 6 Oeste 15 Oeste 0 -- -- 72
2021-01-04 16:00:00 8.7 6 Oeste 13 Sudoeste 0 -- -- 66
2021-01-04 15:00:00 8.4 5 Oeste 12 Oeste 0 -- -- 65
2021-01-04 14:00:00 8.4 8 Noroeste 18 Oeste 0 -- -- 63
2021-01-04 13:00:00 8.2 8 Noroeste 17 Oeste 0 -- -- 66
2021-01-04 12:00:00 7.6 8 Noroeste 17 Oeste 0 -- -- 68
2021-01-04 11:00:00 5.5 5 Noroeste 10 Oeste 0 -- -- 86
2021-01-04 10:00:00 3 2 Noroeste 5 Noroeste 0 -- -- 95
2021-01-04 09:00:00 1.2 2 Noroeste 4 Noroeste 0 -- -- 95
2021-01-04 08:00:00 1.2 3 Norte 6 Noroeste 0 -- -- 94
2021-01-04 07:00:00 1.3 4 Norte 6 Noroeste 0 -- -- 95
2021-01-04 06:00:00 1.3 3 Norte 6 Noroeste 0 -- -- 94
2021-01-04 05:00:00 1.5 3 Noroeste 6 Noroeste 0 -- -- 93
2021-01-04 04:00:00 1.7 2 Norte 6 Noroeste 0 -- -- 89
2021-01-04 03:00:00 1.9 3 Noroeste 10 Norte 0 -- -- 86
2021-01-04 02:00:00 2.1 6 Norte 8 Norte 0 -- -- 84
2021-01-04 01:00:00 2.5 8 Norte 17 Norte 0 -- -- 82
2021-01-04 00:00:00 2.9 9 Norte 13 Norte 0 -- -- 77
2021-01-03 23:00:00 3.4 5 Noroeste 7 Noroeste 0 -- -- 74
2021-01-03 22:00:00 3.7 4 Noroeste 9 Noroeste 0 -- -- 71
2021-01-03 21:00:00 4.3 4 Noroeste 9 Noroeste 0 -- -- 67
2021-01-03 20:00:00 4.7 6 Noroeste 11 Noroeste 0 -- -- 62
2021-01-03 19:00:00 5.7 7 Noroeste 17 Noroeste 0 -- -- 57
2021-01-03 18:00:00 7.7 10 Noroeste 24 Oeste 0 -- -- 49
2021-01-03 17:00:00 9.3 12 Oeste 24 Oeste 0 -- -- 42
2021-01-03 16:00:00 9.8 10 Oeste 20 Oeste 0 -- -- 45
2021-01-03 15:00:00 9.6 9 Oeste 20 Oeste 0 -- -- 44
2021-01-03 14:00:00 9 9 Oeste 18 Noroeste 0 -- -- 43
2021-01-03 13:00:00 8.6 7 Oeste 18 Sudoeste 0 -- -- 44
2021-01-03 12:00:00 7.5 6 Noroeste 13 Noroeste 0 -- -- 47
2021-01-03 11:00:00 5.4 3 Norte 5 Norte 0 -- -- 58
2021-01-03 10:00:00 3.1 2 Norte 5 Norte 0 -- -- 66
2021-01-03 09:00:00 1.2 4 Norte 5 Norte 0 -- -- 77
2021-01-03 08:00:00 0 0 Calma 4 Sur 0 -- -- 79
2021-01-03 07:00:00 1.2 4 Sur 10 Este 0 -- -- 73
2021-01-03 06:00:00 1.3 3 Este 8 Este 0 -- -- 74
2021-01-03 05:00:00 1.7 6 Norte 8 Norte 0 -- -- 73
2021-01-03 04:00:00 1.8 2 Norte 4 Norte 0 -- -- 85
2021-01-03 03:00:00 2.3 2 Sudoeste 18 Norte 0 -- -- 79
2021-01-03 02:00:00 2.8 9 Norte 12 Norte 0 -- -- 81
2021-01-03 01:00:00 2.5 7 Norte 19 Noroeste 0 -- -- 76
2021-01-03 00:00:00 3 10 Norte 15 Norte 0 -- -- 72
2021-01-02 23:00:00 3 10 Norte 13 Norte 0 -- -- 74
2021-01-02 22:00:00 3 11 Norte 19 Norte 0 -- -- 76
2021-01-02 21:00:00 4 15 Norte 20 Norte 0 -- -- 70
2021-01-02 20:00:00 4.6 15 Norte 21 Noroeste 0 -- -- 66
2021-01-02 19:00:00 5.5 11 Norte 21 Noroeste 0 -- -- 60
2021-01-02 18:00:00 7.6 11 Noroeste 21 Norte 0 -- -- 47
2021-01-02 17:00:00 8.7 13 Noroeste 29 Noroeste 0 -- -- 40
2021-01-02 16:00:00 8.9 17 Noroeste 26 Norte 0 -- -- 39
2021-01-02 15:00:00 8.9 13 Noroeste 26 Noroeste 0 -- -- 52
2021-01-02 14:00:00 8.5 15 Noroeste 27 Norte 0 -- -- 53